Norfolk, Virginia
Traffic Map
Current Weather Conditions
Norfolk, Virginia
Overcast
Overcast
72°
Feels Like: 72°
Wind Chill: 72° Ceiling: 3900
Heat Index: 72° Visibility: 10mi
Dew Point: 65° Wind: 7mph
Humidity: 78% Direction: 250° (WSW)
Pressure: 29.74in Gusts: 0mph
Raw Report DataKORF 031951Z AUTO 25006KT 10SM SCT016 BKN039 OVC055 22/18 A2974 RMK AO2 RAB1854E14 SLP072 P0000 T02220183 TSNO
Traffic Incident Summary
Active as of:
Severity:
Category:
InformationThere was an issue retrieving the traffic information for this location. Please try a different location or try again shortly.
Advertisements
Track Severe Weather on mobile